Boca Raton, FL (33432)

1:41 AM EDT on October 23, 2014 (GMT -0400)
Spanish Village | Change Station
CLOSE
Current Station
Personal Weather Station
Location: Boca Raton, FL
Elevation: 13 ft
Nearby Weather Stations

Elev 13 ft 26.36 °N, 80.09 °W | Updated 1 minute ago

Overcast
Overcast
74.8 °F
Feels Like 73 °F
N
0.0
Wind Variable Wind from WNW
Gusts 1.0 mph

Today
High -- | Low -- °F
--% Chance of Precip.
Yesterday
High -- | Low -- °F
Precip. -- in
7:23 AM 6:45 PM
Waning Crescent, 0% visible
Pressure 29.93 in
Visibility 8.0 miles
Clouds Overcast 7500 ft
Heat Index 73 °F
Dew Point 73 °F
Humidity 94%
Rainfall 0.00 in
Snow Depth Not available.
UV 0 out of 12
Pollen 3.40 out of 12
PM2.5 Good
Flu Activity Local Activity
METAR KPMP 230453Z AUTO 24004KT 8SM -RA OVC075 24/23 A2992 RMK AO2 RAE21B53 SLP134 P0002 T02440233 402890228

More Conditions Fewer Conditions

Pressure 29.93 in
Visibility 8.0 miles
Clouds Overcast 7500 ft
Heat Index 73 °F
Dew Point 73 °F
Humidity 94%
Rainfall 0.00 in
Snow Depth Not available.
UV 0 out of 12
Pollen 3.40 out of 12
PM2.5 Good
Flu Activity Local Activity
METAR KPMP 230453Z AUTO 24004KT 8SM -RA OVC075 24/23 A2992 RMK AO2 RAE21B53 SLP134 P0002 T02440233 402890228

More Conditions Fewer Conditions

10-Day Weather Forecast

Almanac

Astronomy

Oct. 23, 2014 Rise Set
Actual Time 7:23 AM EDT 6:45 PM EDT
Civil Twilight 7:00 AM EDT 7:08 PM EDT
Nautical Twilight 6:33 AM EDT 7:35 PM EDT
Astronomical Twilight 6:06 AM EDT 8:02 PM EDT
Moon 7:04 AM EDT 6:45 PM EDT
Length of Visible Light 12h 08m
Length of Day
11h 21m
Tomorrow will be 1m 26s shorter.
Waning Crescent, 0% of the Moon is Illuminated
Today
Waning Crescent
Oct 23
New
Oct 30
First Quarter
Nov 6
Full
Nov 14
Last Quarter

Today's Extremes

State Highs State Lows

Community

WunderPhotos

Upload Photos

1,764,188 photos uploaded!

Nearby

Air Quality

  Air Quality AQ Index Pollutant
Yesterday Good
OZONE
Yesterday Good
PM2.5
Current Good
PM2.5
Thursday Good
OZONE
Thursday Good
PM2.5
Friday Good
OZONE
Friday Good
PM2.5

Snow Depth

Station Depth Elevation
No new snow has been reported.

Earthquake Activity

City Distance Mag. Time & Date
No recent earthquake activity has been reported nearby.
Minimum magnitude displayed is 2.5.

Coastal Water Temperatures

Place Temperature
Lake Worth, FL 82.9 °F
Virginia Key, FL 81.0 °F

Nearby Weather Stations